Grant, Michigan
Current Conditions -  °F | °C
As of 1:32 PM on Thursday 27 Nov 2014 (Local Time) from KFFX Reporting Station
Haze Haze  
Wind Chill: 10°   Ceiling: 2100
Heat Index: 24°   Visibility: 5mi
Dew Point: 18°   Wind: 20mph
Humidity: 76%   Direction: 350°N
Pressure: 30.24"   Gusts: 26mph
Location:  43.34°N, 85.81°W
Report Text: KFFX 271832Z AUTO 35017G23KT 5SM HZ SCT014 BKN021 OVC026 M04/M08 A3024 RMK AO2 T10431080
Loading
Personal Weather Stations






























Interactive Weather Map New forecast layout! Learn more

10-Day Weather Forecast

Advertisements
Track Severe Weather on mobile